Time;durP1;ratioP1;P1;durP2;ratioP2;P2;SDS_P1;SDS_P2;PMS_P1;PMS_P2;Temp;Humidity;BMP_temperature;BMP_pressure;BME280_temperature;BME280_humidity;BME280_pressure;Samples;Min_cycle;Max_cycle;Signal;HPM_P1;HPM_P2
2021/01/20 00:00:41;;;;;;;13.93;9.20;;;8.10;83.00;;;;;;4992769;28;20026;-87
2021/01/20 00:03:07;;;;;;;9.30;6.70;;;8.10;83.10;;;;;;5006079;28;20037;-87
2021/01/20 00:05:32;;;;;;;13.52;9.15;;;8.10;83.00;;;;;;5009766;28;20107;-88
2021/01/20 00:07:58;;;;;;;13.40;8.32;;;8.10;82.90;;;;;;5011221;28;20030;-87
2021/01/20 00:10:23;;;;;;;11.57;7.18;;;8.10;82.90;;;;;;5008653;28;20022;-85
2021/01/20 00:12:49;;;;;;;11.25;7.30;;;8.10;82.80;;;;;;5008016;28;20479;-87
2021/01/20 00:15:21;;;;;;;14.00;9.38;;;8.10;82.80;;;;;;4986301;28;20524;-87
2021/01/20 00:17:47;;;;;;;15.23;10.73;;;8.00;82.50;;;;;;5008367;28;20036;-87
2021/01/20 00:20:13;;;;;;;14.68;9.07;;;8.00;82.30;;;;;;4993347;28;20026;-87
2021/01/20 00:22:41;;;;;;;10.43;7.00;;;8.00;82.30;;;;;;4989641;28;20048;-87
2021/01/20 00:25:09;;;;;;;10.45;6.82;;;8.00;82.40;;;;;;5005133;28;20069;-88
2021/01/20 00:27:35;;;;;;;11.73;8.05;;;8.00;82.30;;;;;;5007457;28;20107;-87
2021/01/20 00:30:04;;;;;;;11.77;7.68;;;8.00;82.40;;;;;;5009084;28;20030;-88
2021/01/20 00:32:29;;;;;;;13.50;8.63;;;8.00;82.40;;;;;;5009591;28;20025;-87
2021/01/20 00:34:55;;;;;;;18.58;10.32;;;8.00;82.50;;;;;;4992783;28;20045;-88
2021/01/20 00:37:22;;;;;;;14.13;8.75;;;8.00;82.70;;;;;;5008447;28;20030;-88
2021/01/20 00:39:48;;;;;;;16.75;9.95;;;7.90;82.80;;;;;;4988559;28;20475;-87
2021/01/20 00:42:13;;;;;;;14.20;9.27;;;7.90;82.90;;;;;;5009006;28;20272;-87
2021/01/20 00:44:41;;;;;;;13.43;8.35;;;8.00;83.00;;;;;;5003313;28;20021;-86
2021/01/20 00:47:07;;;;;;;12.90;8.45;;;7.90;83.00;;;;;;5003780;28;20029;-87
2021/01/20 00:49:32;;;;;;;10.70;5.95;;;7.80;83.10;;;;;;5009082;28;20034;-87
2021/01/20 00:51:58;;;;;;;17.63;11.32;;;7.80;83.10;;;;;;4999691;28;20038;-87
2021/01/20 00:54:23;;;;;;;11.25;7.97;;;7.80;83.00;;;;;;5002509;28;20113;-87
2021/01/20 00:56:52;;;;;;;16.50;10.70;;;7.80;82.90;;;;;;5007272;28;20014;-87
2021/01/20 00:59:17;;;;;;;11.02;6.80;;;7.80;82.80;;;;;;4997303;28;20042;-87
2021/01/20 01:01:43;;;;;;;10.23;7.18;;;7.80;82.70;;;;;;5004961;28;20098;-86
2021/01/20 01:04:08;;;;;;;11.02;6.65;;;7.80;82.50;;;;;;5011884;28;20037;-87
2021/01/20 01:06:34;;;;;;;8.70;5.90;;;7.80;82.40;;;;;;5006240;28;20030;-86
2021/01/20 01:08:59;;;;;;;8.63;6.45;;;7.80;82.50;;;;;;4999642;28;20101;-87
2021/01/20 01:11:25;;;;;;;10.85;6.40;;;7.80;82.40;;;;;;5011650;28;20034;-87
2021/01/20 01:13:50;;;;;;;7.45;5.35;;;7.80;82.30;;;;;;5000577;28;20474;-86
2021/01/20 01:16:17;;;;;;;11.18;6.75;;;7.80;82.30;;;;;;5010449;28;20048;-88
2021/01/20 01:18:43;;;;;;;11.98;6.97;;;7.80;82.20;;;;;;4988778;28;20018;-88
2021/01/20 01:21:08;;;;;;;9.23;6.95;;;7.80;81.90;;;;;;4995139;28;20035;-88
2021/01/20 01:23:34;;;;;;;9.43;6.13;;;7.80;81.80;;;;;;5007788;28;20041;-86
2021/01/20 01:26:01;;;;;;;9.25;6.00;;;7.80;81.80;;;;;;4991816;28;20033;-87
2021/01/20 01:28:27;;;;;;;13.32;7.63;;;7.80;81.70;;;;;;4989312;28;20121;-86
2021/01/20 01:30:52;;;;;;;14.13;7.97;;;7.80;81.40;;;;;;5002530;28;20173;-87
2021/01/20 01:33:18;;;;;;;10.98;5.95;;;7.80;81.20;;;;;;5005693;28;20026;-87
2021/01/20 01:35:44;;;;;;;9.63;5.85;;;7.80;81.20;;;;;;5008463;28;20112;-87
2021/01/20 01:38:10;;;;;;;11.52;7.30;;;7.80;81.10;;;;;;4988748;28;20026;-87
2021/01/20 01:40:36;;;;;;;11.68;6.65;;;7.80;80.90;;;;;;5008529;28;20486;-86
2021/01/20 01:43:01;;;;;;;7.35;5.13;;;7.80;80.90;;;;;;5009430;28;20618;-87
2021/01/20 01:45:27;;;;;;;8.38;5.60;;;7.80;81.00;;;;;;5005971;28;20065;-86
2021/01/20 01:47:52;;;;;;;8.25;5.15;;;7.80;80.90;;;;;;5008034;28;20109;-87
2021/01/20 01:50:18;;;;;;;10.25;5.45;;;7.80;80.90;;;;;;5005813;28;20400;-87
2021/01/20 01:52:44;;;;;;;9.07;6.53;;;7.90;81.00;;;;;;5000566;28;20034;-88
2021/01/20 01:55:11;;;;;;;9.02;5.43;;;7.80;80.80;;;;;;5008129;28;20033;-86
2021/01/20 01:57:40;;;;;;;13.95;7.38;;;7.80;80.70;;;;;;5025778;28;20030;-87
2021/01/20 02:00:08;;;;;;;11.50;7.35;;;7.80;80.70;;;;;;5022400;28;20030;-86
2021/01/20 02:02:35;;;;;;;6.97;5.25;;;7.80;80.60;;;;;;5002325;28;20052;-86
2021/01/20 02:05:01;;;;;;;11.77;6.20;;;7.80;80.80;;;;;;5027004;28;20029;-87
2021/01/20 02:07:28;;;;;;;10.23;6.28;;;7.80;80.90;;;;;;5009137;28;20014;-86
2021/01/20 02:09:55;;;;;;;8.80;5.20;;;7.80;80.80;;;;;;5017574;28;20022;-87
2021/01/20 02:12:38;;;;;;;12.50;6.80;;;7.80;81.00;;;;;;4997869;28;20034;-87
2021/01/20 02:15:15;;;;;;;10.55;7.30;;;7.80;81.00;;;;;;5013290;28;20034;-86
2021/01/20 02:17:52;;;;;;;9.73;5.80;;;7.80;81.10;;;;;;5038998;28;20030;-89
2021/01/20 02:20:35;;;;;;;9.25;6.18;;;7.70;81.20;;;;;;5023120;28;20030;-88
2021/01/20 02:23:06;;;;;;;8.98;5.80;;;7.70;81.40;;;;;;5004945;28;20034;-88
2021/01/20 02:25:32;;;;;;;9.40;5.20;;;7.70;81.50;;;;;;5013168;28;20030;-88
2021/01/20 02:28:18;;;;;;;10.93;6.80;;;7.70;81.70;;;;;;5003320;28;20031;-89
2021/01/20 02:30:45;;;;;;;12.18;6.68;;;7.70;81.80;;;;;;5012693;28;20026;-89
2021/01/20 02:33:15;;;;;;;8.80;6.43;;;7.70;81.80;;;;;;5026250;28;20044;-89
2021/01/20 02:35:41;;;;;;;10.68;6.30;;;7.70;81.80;;;;;;5023825;28;20034;-88
2021/01/20 02:38:09;;;;;;;14.40;8.63;;;7.70;82.00;;;;;;5027919;28;20097;-89
2021/01/20 02:40:35;;;;;;;7.70;4.63;;;7.70;82.00;;;;;;5033875;28;20030;-87
2021/01/20 02:43:01;;;;;;;8.23;4.95;;;7.70;82.10;;;;;;5016895;28;20042;-88
2021/01/20 02:45:27;;;;;;;10.40;6.88;;;7.70;82.10;;;;;;5013285;28;20109;-88
2021/01/20 02:47:53;;;;;;;7.53;5.18;;;7.70;82.10;;;;;;5051919;28;20013;-88
2021/01/20 02:50:20;;;;;;;7.50;5.00;;;7.70;82.20;;;;;;5012561;28;20137;-88
2021/01/20 02:53:13;;;;;;;9.95;7.30;;;7.70;82.30;;;;;;5013864;28;20505;-88
2021/01/20 02:55:44;;;;;;;8.02;5.68;;;7.70;82.40;;;;;;5004280;28;20045;-88
2021/01/20 02:58:14;;;;;;;10.82;6.68;;;7.70;82.50;;;;;;4991603;28;20060;-88
2021/01/20 03:00:43;;;;;;;8.25;5.10;;;7.70;82.50;;;;;;5008857;28;20037;-88
2021/01/20 03:03:10;;;;;;;10.55;6.75;;;7.70;82.60;;;;;;4988128;28;20510;-89
2021/01/20 03:05:37;;;;;;;10.52;6.57;;;7.80;82.60;;;;;;5018684;28;20033;-88
2021/01/20 03:08:03;;;;;;;10.32;5.80;;;7.80;82.60;;;;;;5024668;28;20037;-87
2021/01/20 03:10:29;;;;;;;12.65;7.88;;;7.80;82.60;;;;;;5008952;28;20479;-86
2021/01/20 03:12:55;;;;;;;7.97;4.78;;;7.80;82.50;;;;;;5001583;28;20026;-86
2021/01/20 03:15:22;;;;;;;11.07;7.75;;;7.80;82.50;;;;;;5005586;28;20030;-87
2021/01/20 03:17:49;;;;;;;7.60;5.25;;;7.80;82.50;;;;;;5003228;28;20453;-88
2021/01/20 03:20:15;;;;;;;10.15;6.82;;;7.90;82.60;;;;;;4974858;28;20026;-88
2021/01/20 03:22:42;;;;;;;8.43;5.35;;;7.90;82.60;;;;;;5003752;28;20101;-88
2021/01/20 03:25:09;;;;;;;7.80;5.47;;;7.90;82.70;;;;;;4992812;28;20025;-88
2021/01/20 03:27:34;;;;;;;8.10;5.68;;;7.90;82.80;;;;;;5009351;28;20033;-87
2021/01/20 03:30:00;;;;;;;10.88;6.60;;;7.90;82.80;;;;;;5009452;28;20172;-88
2021/01/20 03:32:26;;;;;;;10.32;7.32;;;7.90;83.00;;;;;;5005411;28;20040;-88
2021/01/20 03:34:51;;;;;;;8.70;6.30;;;7.80;83.20;;;;;;5009140;28;20029;-88
2021/01/20 03:37:17;;;;;;;7.82;5.50;;;7.80;83.30;;;;;;5002445;28;20152;-87
2021/01/20 03:39:42;;;;;;;5.82;4.25;;;7.90;83.40;;;;;;5003549;28;20376;-86
2021/01/20 03:42:08;;;;;;;10.73;6.35;;;7.90;83.40;;;;;;5008941;28;20304;-87
2021/01/20 03:44:34;;;;;;;6.93;5.05;;;7.90;83.40;;;;;;5010236;28;20021;-87
2021/01/20 03:46:59;;;;;;;7.80;5.18;;;7.90;83.40;;;;;;5011586;28;20034;-87
2021/01/20 03:49:26;;;;;;;8.05;5.22;;;7.90;83.30;;;;;;5011345;28;20034;-87
2021/01/20 03:51:52;;;;;;;9.23;5.82;;;7.90;83.30;;;;;;5010804;28;20045;-87
2021/01/20 03:54:18;;;;;;;9.52;5.90;;;7.90;83.20;;;;;;5009360;28;20112;-88
2021/01/20 03:56:44;;;;;;;9.88;5.70;;;7.90;83.00;;;;;;5024556;28;20153;-86
2021/01/20 03:59:09;;;;;;;7.70;5.43;;;7.90;82.90;;;;;;5001554;28;20042;-87
2021/01/20 04:01:35;;;;;;;9.45;6.68;;;7.90;82.70;;;;;;4994759;28;20527;-87
2021/01/20 04:04:01;;;;;;;7.28;4.78;;;7.90;82.50;;;;;;5004544;28;20071;-87
2021/01/20 04:06:27;;;;;;;7.90;5.40;;;7.90;82.40;;;;;;4978449;28;20030;-87
2021/01/20 04:08:52;;;;;;;7.00;4.55;;;7.90;82.20;;;;;;4988701;28;20030;-87
2021/01/20 04:11:18;;;;;;;9.20;5.60;;;8.00;82.30;;;;;;4997581;28;20036;-87
2021/01/20 04:13:45;;;;;;;6.53;4.20;;;8.00;82.00;;;;;;5003616;28;20032;-87
2021/01/20 04:16:10;;;;;;;8.30;4.38;;;8.10;82.00;;;;;;5021990;28;20061;-87
2021/01/20 04:18:36;;;;;;;9.27;5.20;;;8.10;81.80;;;;;;5011656;28;20026;-87
2021/01/20 04:21:01;;;;;;;6.50;4.35;;;8.10;81.80;;;;;;5008315;28;20026;-86
2021/01/20 04:23:27;;;;;;;9.23;4.90;;;8.10;81.50;;;;;;5020987;28;20064;-86
2021/01/20 04:25:53;;;;;;;6.43;4.63;;;8.10;81.30;;;;;;5019449;28;20025;-87
2021/01/20 04:28:18;;;;;;;6.32;4.20;;;8.20;81.30;;;;;;5003339;28;20108;-87
2021/01/20 04:30:44;;;;;;;6.43;4.10;;;8.20;81.10;;;;;;5019239;28;20026;-86
2021/01/20 04:33:09;;;;;;;6.38;4.18;;;8.20;81.00;;;;;;5012410;28;20025;-87
2021/01/20 04:35:35;;;;;;;4.82;3.45;;;8.20;80.70;;;;;;5009021;28;20053;-87
2021/01/20 04:38:01;;;;;;;7.15;5.05;;;8.30;80.90;;;;;;5008849;28;20057;-87
2021/01/20 04:40:26;;;;;;;5.78;4.40;;;8.30;80.60;;;;;;4992062;28;20048;-87
2021/01/20 04:42:52;;;;;;;7.82;4.47;;;8.30;80.40;;;;;;5004536;28;20126;-86
2021/01/20 04:45:17;;;;;;;6.63;3.60;;;8.30;80.30;;;;;;4996669;28;20026;-87
2021/01/20 04:47:43;;;;;;;6.28;4.55;;;8.30;80.30;;;;;;5008071;28;20036;-87
2021/01/20 04:50:12;;;;;;;4.82;3.72;;;8.40;80.40;;;;;;5008717;28;20492;-86
2021/01/20 04:52:44;;;;;;;6.32;3.20;;;8.40;80.50;;;;;;4998135;28;20018;-87
2021/01/20 04:55:10;;;;;;;5.72;4.10;;;8.40;80.50;;;;;;5007985;28;20018;-87
2021/01/20 04:57:37;;;;;;;6.05;3.80;;;8.50;80.50;;;;;;4991828;28;20480;-88
2021/01/20 05:00:11;;;;;;;5.55;3.50;;;8.40;80.40;;;;;;5010302;28;20030;-87
2021/01/20 05:02:38;;;;;;;6.47;4.28;;;8.40;80.70;;;;;;4987730;28;20476;-87
2021/01/20 05:05:05;;;;;;;6.35;3.78;;;8.40;80.90;;;;;;5005342;28;20026;-88
2021/01/20 05:07:31;;;;;;;8.82;4.85;;;8.40;81.10;;;;;;5000691;28;20058;-86
2021/01/20 05:10:00;;;;;;;6.28;3.97;;;8.40;81.30;;;;;;5012194;28;20140;-89
2021/01/20 05:12:55;;;;;;;5.60;4.10;;;8.40;81.40;;;;;;5006891;28;20026;-88
2021/01/20 05:15:33;;;;;;;4.40;3.38;;;8.40;81.30;;;;;;4997265;28;20514;-86
2021/01/20 05:18:04;;;;;;;5.57;3.75;;;8.40;81.20;;;;;;5006432;28;20092;-87
2021/01/20 05:20:35;;;;;;;4.90;3.85;;;8.50;81.20;;;;;;5008333;28;20029;-88
2021/01/20 05:23:05;;;;;;;8.55;4.53;;;8.50;81.00;;;;;;5008141;28;20033;-88
2021/01/20 05:25:44;;;;;;;7.05;4.20;;;8.50;80.90;;;;;;5006680;28;20652;-88
2021/01/20 05:28:28;;;;;;;5.78;3.75;;;8.50;80.70;;;;;;5006674;28;20041;-88
2021/01/20 05:30:55;;;;;;;7.13;4.43;;;8.50;80.60;;;;;;5000773;28;20031;-88
2021/01/20 05:33:38;;;;;;;5.50;3.80;;;8.50;80.40;;;;;;5018518;28;20164;-88
2021/01/20 05:36:07;;;;;;;6.40;4.32;;;8.50;80.10;;;;;;4995035;28;20105;-88
2021/01/20 05:38:38;;;;;;;6.38;3.85;;;8.50;79.90;;;;;;4995391;28;20172;-88
2021/01/20 05:41:29;;;;;;;6.05;3.85;;;8.50;79.90;;;;;;5017359;28;20527;-87
2021/01/20 05:44:09;;;;;;;5.32;3.47;;;8.50;80.00;;;;;;5014743;28;20045;-87
2021/01/20 05:46:36;;;;;;;6.32;3.72;;;8.50;79.80;;;;;;5013820;28;20030;-87
2021/01/20 05:49:03;;;;;;;6.50;3.53;;;8.50;79.60;;;;;;5026719;28;20439;-88
2021/01/20 05:51:41;;;;;;;5.15;4.10;;;8.50;79.50;;;;;;5013981;28;20111;-88
2021/01/20 05:54:08;;;;;;;5.90;4.13;;;8.50;79.40;;;;;;5033898;28;20040;-88
2021/01/20 05:56:34;;;;;;;5.93;3.67;;;8.50;79.10;;;;;;4999509;28;20022;-87
2021/01/20 05:59:00;;;;;;;6.85;4.47;;;8.50;78.90;;;;;;5019125;28;20029;-88
2021/01/20 06:01:26;;;;;;;6.63;4.18;;;8.60;78.90;;;;;;5015802;28;20492;-88
2021/01/20 06:03:53;;;;;;;5.82;3.50;;;8.50;78.70;;;;;;5014599;28;20064;-88
2021/01/20 06:06:20;;;;;;;7.72;4.38;;;8.50;78.50;;;;;;4997963;28;20040;-88
2021/01/20 06:08:47;;;;;;;6.50;4.22;;;8.60;78.60;;;;;;5008587;28;20125;-89
2021/01/20 06:11:14;;;;;;;7.55;4.40;;;8.60;78.20;;;;;;5014150;28;20045;-86
2021/01/20 06:13:40;;;;;;;5.63;3.47;;;8.60;78.20;;;;;;5014487;28;20034;-86
2021/01/20 06:16:16;;;;;;;4.10;3.13;;;8.70;78.30;;;;;;5018513;28;20030;-86
2021/01/20 06:18:49;;;;;;;6.28;4.20;;;8.70;78.10;;;;;;5032802;28;20021;-86
2021/01/20 06:21:16;;;;;;;4.10;2.65;;;8.70;77.90;;;;;;5034997;28;20038;-85
2021/01/20 06:24:00;;;;;;;4.93;3.00;;;8.70;78.10;;;;;;5034655;28;20044;-86
2021/01/20 06:26:26;;;;;;;4.18;2.60;;;8.70;78.10;;;;;;5021395;28;20034;-87
2021/01/20 06:28:58;;;;;;;4.03;2.58;;;8.70;78.20;;;;;;5010842;28;20458;-86
2021/01/20 06:31:27;;;;;;;4.88;3.00;;;8.70;78.20;;;;;;5016303;28;20056;-87
2021/01/20 06:33:53;;;;;;;5.93;4.07;;;8.70;78.00;;;;;;5016085;28;20028;-87
2021/01/20 06:36:38;;;;;;;4.32;2.92;;;8.70;77.60;;;;;;5004254;28;20089;-87
2021/01/20 06:39:25;;;;;;;3.05;2.30;;;8.70;77.60;;;;;;5022551;28;20033;-86
2021/01/20 06:41:51;;;;;;;4.88;3.10;;;8.70;77.70;;;;;;5028788;28;20045;-86
2021/01/20 06:44:17;;;;;;;3.80;2.67;;;8.70;78.30;;;;;;5029300;22;20038;-87
2021/01/20 06:46:55;;;;;;;3.05;2.22;;;8.70;77.50;;;;;;5011622;28;20076;-86
2021/01/20 06:49:21;;;;;;;4.32;2.63;;;8.80;77.70;;;;;;5018234;28;20045;-85
2021/01/20 06:52:15;;;;;;;4.82;3.00;;;8.70;77.40;;;;;;5016741;28;20144;-87
2021/01/20 06:54:41;;;;;;;4.20;2.60;;;8.80;77.30;;;;;;5012216;28;20535;-86
2021/01/20 06:57:26;;;;;;;5.43;2.40;;;8.80;77.30;;;;;;5009687;28;20053;-85
2021/01/20 07:00:10;;;;;;;5.63;2.80;;;8.80;77.40;;;;;;5001358;28;20017;-86
2021/01/20 07:02:36;;;;;;;4.25;3.13;;;8.80;77.20;;;;;;5018985;28;20054;-85
2021/01/20 07:05:03;;;;;;;6.82;3.45;;;8.80;76.90;;;;;;5029530;28;20022;-86
2021/01/20 07:07:50;;;;;;;5.82;3.20;;;8.80;76.80;;;;;;5010306;28;20030;-87
2021/01/20 07:10:18;;;;;;;4.03;2.75;;;8.80;77.00;;;;;;5011957;28;20045;-86
2021/01/20 07:13:11;;;;;;;3.90;2.80;;;8.80;76.90;;;;;;5001466;28;20250;-84
2021/01/20 07:15:37;;;;;;;5.03;3.50;;;8.80;77.00;;;;;;5004588;28;20126;-84
2021/01/20 07:18:05;;;;;;;3.65;2.30;;;8.80;76.90;;;;;;5007000;28;20030;-83
2021/01/20 07:20:39;;;;;;;4.93;2.55;;;8.90;77.00;;;;;;4987551;28;20080;-96
2021/01/20 07:23:06;;;;;;;3.67;2.40;;;8.90;77.10;;;;;;4994599;28;20050;-89
2021/01/20 07:25:31;;;;;;;4.75;2.85;;;8.90;77.10;;;;;;5010958;28;20507;-88
2021/01/20 07:27:57;;;;;;;4.82;2.63;;;8.90;76.90;;;;;;5011843;28;20101;-89
2021/01/20 07:30:23;;;;;;;6.65;3.30;;;8.90;76.90;;;;;;4996038;28;20026;-88
2021/01/20 07:32:49;;;;;;;3.67;2.38;;;8.90;77.00;;;;;;5002663;28;20018;-89
2021/01/20 07:35:23;;;;;;;3.22;2.58;;;8.90;77.10;;;;;;4993199;28;20068;-89
2021/01/20 07:38:00;;;;;;;2.53;1.83;;;8.90;77.20;;;;;;5008323;28;20038;-90
2021/01/20 07:40:33;;;;;;;3.80;2.65;;;8.90;77.30;;;;;;4991439;28;20075;-89
2021/01/20 07:43:00;;;;;;;3.83;2.35;;;8.90;77.30;;;;;;5005373;28;20410;-86
2021/01/20 07:45:41;;;;;;;3.75;2.30;;;8.90;77.50;;;;;;5018238;28;20117;-90
2021/01/20 07:48:09;;;;;;;3.85;2.40;;;9.00;77.70;;;;;;5028823;28;20022;-91
2021/01/20 07:50:48;;;;;;;4.07;2.95;;;9.00;77.70;;;;;;5029578;28;20022;-95
2021/01/20 07:53:18;;;;;;;3.90;2.50;;;9.00;77.70;;;;;;5002131;28;20588;-90
2021/01/20 07:55:46;;;;;;;3.63;2.40;;;8.90;77.80;;;;;;5010181;28;20103;-92
2021/01/20 07:58:13;;;;;;;4.30;3.42;;;8.90;78.00;;;;;;4993572;28;20113;-88
2021/01/20 08:00:47;;;;;;;3.20;2.40;;;8.90;78.10;;;;;;5013524;28;20033;-89
2021/01/20 08:03:32;;;;;;;3.45;2.25;;;8.90;78.20;;;;;;5012778;28;20061;-88
2021/01/20 08:05:59;;;;;;;2.80;2.30;;;8.90;78.30;;;;;;4992099;28;20057;-86
2021/01/20 08:08:26;;;;;;;2.83;2.30;;;8.90;78.50;;;;;;4993924;28;20049;-88
2021/01/20 08:10:56;;;;;;;3.70;2.63;;;8.90;78.70;;;;;;4992961;28;20025;-86
2021/01/20 08:13:25;;;;;;;4.03;2.88;;;9.00;78.80;;;;;;5013383;28;20034;-87
2021/01/20 08:15:51;;;;;;;2.70;1.90;;;9.00;78.90;;;;;;5005158;28;20030;-87
2021/01/20 08:18:18;;;;;;;4.25;2.60;;;9.00;79.00;;;;;;5009561;28;20364;-87
2021/01/20 08:20:44;;;;;;;2.83;2.22;;;9.00;79.10;;;;;;5007978;28;20046;-91
2021/01/20 08:23:37;;;;;;;4.57;2.83;;;9.00;79.30;;;;;;4993508;28;20037;-92
2021/01/20 08:26:04;;;;;;;5.72;3.40;;;9.00;79.50;;;;;;4990124;28;20044;-86
2021/01/20 08:28:31;;;;;;;2.95;2.05;;;9.00;79.60;;;;;;5020890;28;20029;-93
2021/01/20 08:30:57;;;;;;;2.95;2.20;;;9.00;79.80;;;;;;5007639;28;20071;-91
2021/01/20 08:33:23;;;;;;;4.13;2.58;;;9.00;79.90;;;;;;5026891;28;20034;-92
2021/01/20 08:35:57;;;;;;;3.85;2.53;;;9.10;80.00;;;;;;5007349;28;20029;-90
2021/01/20 08:38:27;;;;;;;2.88;2.53;;;9.10;80.10;;;;;;4998095;28;20036;-89
2021/01/20 08:41:12;;;;;;;3.63;2.30;;;9.00;80.20;;;;;;4994273;28;20046;-88
2021/01/20 08:43:38;;;;;;;5.07;2.63;;;9.00;80.30;;;;;;5009536;28;20034;-88
2021/01/20 08:46:23;;;;;;;4.15;2.30;;;9.00;80.40;;;;;;5008239;28;20025;-90
2021/01/20 08:48:57;;;;;;;3.80;3.00;;;9.10;80.60;;;;;;4997954;28;20057;-90
2021/01/20 08:51:24;;;;;;;4.00;2.50;;;9.00;80.70;;;;;;4996991;28;20026;-90
2021/01/20 08:53:51;;;;;;;3.95;2.40;;;9.00;80.80;;;;;;5014568;28;20052;-89
2021/01/20 08:56:26;;;;;;;2.97;2.38;;;9.00;81.00;;;;;;5017026;28;20041;-91
2021/01/20 08:58:53;;;;;;;3.53;2.45;;;9.00;81.10;;;;;;5015786;28;20107;-90
2021/01/20 09:01:23;;;;;;;4.78;3.30;;;9.00;81.10;;;;;;5013916;28;20042;-90
2021/01/20 09:04:02;;;;;;;2.55;1.90;;;9.10;81.40;;;;;;5015696;28;20569;-90
2021/01/20 09:06:29;;;;;;;3.63;2.30;;;9.10;81.40;;;;;;5014259;28;20018;-89
2021/01/20 09:08:56;;;;;;;3.72;2.22;;;9.10;81.30;;;;;;5021106;28;20030;-88
2021/01/20 09:11:24;;;;;;;2.95;1.95;;;9.10;81.30;;;;;;5006953;28;20034;-89
2021/01/20 09:13:56;;;;;;;3.22;2.35;;;9.20;81.30;;;;;;5026512;28;20114;-88
2021/01/20 09:16:28;;;;;;;3.45;2.28;;;9.20;81.20;;;;;;4998997;28;20104;-89
2021/01/20 09:18:53;;;;;;;3.20;2.33;;;9.10;81.20;;;;;;5018230;28;20061;-89
2021/01/20 09:21:19;;;;;;;3.80;2.63;;;9.10;81.10;;;;;;5014978;28;20022;-90
2021/01/20 09:23:45;;;;;;;2.80;2.13;;;9.20;81.10;;;;;;5006632;28;20132;-90
2021/01/20 09:26:10;;;;;;;3.10;2.15;;;9.10;81.00;;;;;;5016011;28;20040;-90
2021/01/20 09:28:36;;;;;;;2.50;2.00;;;9.20;81.00;;;;;;4995593;28;20117;-90
2021/01/20 09:31:02;;;;;;;3.17;2.20;;;9.30;80.90;;;;;;4998166;28;20026;-89
2021/01/20 09:33:28;;;;;;;2.72;2.40;;;9.30;80.60;;;;;;4994170;28;20041;-88
2021/01/20 09:35:55;;;;;;;3.03;2.35;;;9.30;80.40;;;;;;5016869;28;20030;-90
2021/01/20 09:38:21;;;;;;;3.78;2.35;;;9.30;80.10;;;;;;5012637;28;20041;-89
2021/01/20 09:40:47;;;;;;;2.80;2.10;;;9.40;79.80;;;;;;4997223;28;20053;-89
2021/01/20 09:43:13;;;;;;;4.00;2.53;;;9.40;79.40;;;;;;4997124;28;20030;-89
2021/01/20 09:45:38;;;;;;;2.78;1.65;;;9.40;78.90;;;;;;5025359;28;20026;-88
2021/01/20 09:48:08;;;;;;;2.42;1.95;;;9.50;79.00;;;;;;5015391;28;20058;-88
2021/01/20 09:50:34;;;;;;;1.85;1.60;;;9.50;78.50;;;;;;4999743;28;20041;-90
2021/01/20 09:53:04;;;;;;;3.10;2.15;;;9.60;78.80;;;;;;4996995;28;20137;-91
2021/01/20 09:55:31;;;;;;;3.08;2.03;;;9.60;77.80;;;;;;5013745;28;20022;-92
2021/01/20 09:58:02;;;;;;;2.65;1.77;;;9.70;77.50;;;;;;4997783;28;20531;-91
2021/01/20 10:00:27;;;;;;;2.78;1.90;;;9.70;77.40;;;;;;4999576;28;20010;-89
2021/01/20 10:02:53;;;;;;;2.90;1.92;;;9.80;77.20;;;;;;5015860;28;20088;-91
2021/01/20 10:05:19;;;;;;;2.45;1.88;;;9.90;77.00;;;;;;5016670;28;20037;-90
2021/01/20 10:07:44;;;;;;;3.92;1.80;;;10.00;76.30;;;;;;5006156;28;20044;-93
2021/01/20 10:10:12;;;;;;;3.00;1.92;;;10.00;75.90;;;;;;5016868;28;20120;-93
2021/01/20 10:12:38;;;;;;;2.13;1.73;;;10.10;75.50;;;;;;4997323;28;20075;-92
2021/01/20 10:15:09;;;;;;;2.33;1.73;;;10.20;75.40;;;;;;5009559;28;20025;-93
2021/01/20 10:17:35;;;;;;;2.25;1.80;;;10.20;75.20;;;;;;5001309;28;20042;-93
2021/01/20 10:20:02;;;;;;;2.22;1.70;;;10.20;74.40;;;;;;5007925;28;20034;-89
2021/01/20 10:22:29;;;;;;;3.60;2.13;;;10.20;73.70;;;;;;5017617;28;20073;-95
2021/01/20 10:27:33;;;;;;;3.17;2.00;;;10.20;73.40;;;;;;5188987;22;20061;-91
2021/01/20 10:29:59;;;;;;;3.35;1.90;;;10.20;72.90;;;;;;5011631;28;20022;-92
2021/01/20 10:32:26;;;;;;;2.10;1.40;;;10.20;72.70;;;;;;5017553;28;20022;-92
2021/01/20 10:34:52;;;;;;;2.83;1.73;;;10.30;72.90;;;;;;5014817;28;20042;-92
2021/01/20 10:37:17;;;;;;;2.75;2.03;;;10.30;71.40;;;;;;5024505;28;20033;-92
2021/01/20 10:39:44;;;;;;;2.80;1.70;;;10.20;71.30;;;;;;5035067;28;20009;-91
2021/01/20 10:42:09;;;;;;;2.33;1.80;;;10.20;70.80;;;;;;5018356;28;20041;-92
2021/01/20 10:44:35;;;;;;;3.95;2.00;;;10.20;70.60;;;;;;5008412;28;20010;-95
2021/01/20 10:47:01;;;;;;;3.10;2.10;;;10.20;69.70;;;;;;5028049;28;20200;-91
2021/01/20 10:49:26;;;;;;;3.75;1.70;;;10.20;69.60;;;;;;5019836;28;20084;-95
2021/01/20 10:51:55;;;;;;;3.38;2.00;;;10.20;68.80;;;;;;5017797;28;20026;-94
2021/01/20 10:54:21;;;;;;;2.33;1.70;;;10.20;68.70;;;;;;5031135;28;20098;-94
2021/01/20 10:56:47;;;;;;;3.35;2.20;;;10.20;69.30;;;;;;5033371;28;20041;-94
2021/01/20 10:59:14;;;;;;;3.67;1.80;;;10.20;68.80;;;;;;5007889;28;20030;-94
2021/01/20 11:01:39;;;;;;;2.87;1.80;;;10.20;68.50;;;;;;5020454;28;20209;-94
2021/01/20 11:04:05;;;;;;;3.60;1.95;;;10.20;68.70;;;;;;5017523;28;20337;-94
2021/01/20 11:06:31;;;;;;;3.95;2.38;;;10.20;68.10;;;;;;5015758;28;20026;-95
2021/01/20 11:08:59;;;;;;;3.22;2.00;;;10.20;67.40;;;;;;5025757;28;20014;-92
2021/01/20 11:11:26;;;;;;;3.33;2.03;;;10.20;67.10;;;;;;5025204;28;20064;-94
2021/01/20 11:13:52;;;;;;;3.03;1.85;;;10.30;66.90;;;;;;5029589;28;20093;-93
2021/01/20 11:16:17;;;;;;;3.53;1.90;;;10.30;66.70;;;;;;5021600;28;20025;-94
2021/01/20 11:18:43;;;;;;;3.30;2.05;;;10.30;66.20;;;;;;5016006;28;20076;-95
2021/01/20 11:21:14;;;;;;;1.50;1.40;;;10.40;66.20;;;;;;5028008;28;20086;-94
2021/01/20 11:23:41;;;;;;;2.33;1.60;;;10.40;66.10;;;;;;5030022;28;20052;-93
2021/01/20 11:26:09;;;;;;;2.72;1.92;;;10.50;66.10;;;;;;5011267;28;20045;-92
2021/01/20 11:28:39;;;;;;;2.25;1.83;;;10.50;65.10;;;;;;5013022;28;20026;-92
2021/01/20 11:31:05;;;;;;;2.33;1.70;;;10.50;63.90;;;;;;5011632;28;20596;-94
2021/01/20 11:33:33;;;;;;;3.42;1.90;;;10.50;64.40;;;;;;5008806;28;20014;-92
2021/01/20 11:36:12;;;;;;;2.53;1.60;;;10.50;63.90;;;;;;5011458;28;20033;-91
2021/01/20 11:38:47;;;;;;;3.25;2.10;;;10.50;64.10;;;;;;5010574;28;20041;-93
2021/01/20 11:41:12;;;;;;;3.95;1.80;;;10.60;63.50;;;;;;5009386;28;20022;-93
2021/01/20 11:43:38;;;;;;;3.05;1.90;;;10.60;63.50;;;;;;5015501;28;20041;-93
2021/01/20 11:46:04;;;;;;;3.00;1.80;;;10.50;62.80;;;;;;5017182;28;20025;-94
2021/01/20 11:48:32;;;;;;;1.90;1.50;;;10.60;63.20;;;;;;5004837;28;20026;-94
2021/01/20 11:50:57;;;;;;;3.38;1.83;;;10.60;63.30;;;;;;5008117;28;20014;-92
2021/01/20 11:53:41;;;;;;;2.00;1.60;;;10.60;62.90;;;;;;5011084;28;20568;-93
2021/01/20 11:56:06;;;;;;;3.05;1.90;;;10.70;62.80;;;;;;5005800;28;20033;-93
2021/01/20 11:58:32;;;;;;;2.33;1.98;;;10.70;61.60;;;;;;5008252;28;20014;-93
2021/01/20 12:04:06;;;;;;;3.60;2.20;;;10.70;61.50;;;;;;5013581;28;20052;-93
2021/01/20 12:06:31;;;;;;;;;;;10.80;61.30;;;;;;5013734;28;20021;-93
2021/01/20 12:08:58;;;;;;;3.15;1.90;;;10.80;61.70;;;;;;5032318;28;19912;-92
2021/01/20 12:11:25;;;;;;;3.47;1.90;;;10.80;62.00;;;;;;5022838;28;20116;-94
2021/01/20 12:13:51;;;;;;;3.00;1.70;;;10.80;60.90;;;;;;5028973;28;20026;-93
2021/01/20 12:16:17;;;;;;;3.30;2.10;;;10.80;60.70;;;;;;5040604;28;20034;-94
2021/01/20 12:18:42;;;;;;;2.88;1.70;;;10.80;60.50;;;;;;5011512;28;20081;-93
2021/01/20 12:21:08;;;;;;;3.33;2.25;;;10.80;61.00;;;;;;5009441;28;20058;-91
2021/01/20 12:23:33;;;;;;;2.97;1.70;;;10.80;60.70;;;;;;5016037;28;20261;-93
2021/01/20 12:26:00;;;;;;;2.97;1.42;;;10.80;60.80;;;;;;5014020;28;20030;-94
2021/01/20 12:28:26;;;;;;;1.75;1.40;;;10.80;61.50;;;;;;5011844;28;20022;-94
2021/01/20 12:30:51;;;;;;;3.45;2.30;;;10.80;62.00;;;;;;5014649;28;20026;-95
2021/01/20 12:33:17;;;;;;;2.50;1.58;;;10.80;61.00;;;;;;5016052;28;20144;-94
2021/01/20 12:35:43;;;;;;;4.28;1.98;;;10.80;61.50;;;;;;5017494;28;20037;-93
2021/01/20 12:38:09;;;;;;;2.40;1.70;;;10.80;61.50;;;;;;5018645;28;20176;-95
2021/01/20 12:40:34;;;;;;;3.40;1.83;;;10.70;62.00;;;;;;5014649;28;20113;-94
2021/01/20 12:43:00;;;;;;;2.10;1.45;;;10.70;62.20;;;;;;5019102;28;20128;-94
2021/01/20 12:45:26;;;;;;;2.72;1.80;;;10.70;62.40;;;;;;5018819;28;20080;-94
2021/01/20 12:47:52;;;;;;;2.08;1.50;;;10.70;62.40;;;;;;5018393;28;20022;-92
2021/01/20 12:50:17;;;;;;;2.38;1.80;;;10.70;61.60;;;;;;5016330;28;20041;-93
2021/01/20 12:52:43;;;;;;;2.05;1.50;;;10.70;61.50;;;;;;5017230;28;20017;-92
2021/01/20 12:55:09;;;;;;;3.25;1.98;;;10.60;61.80;;;;;;5018032;28;20101;-95
2021/01/20 12:57:35;;;;;;;3.40;1.83;;;10.60;61.90;;;;;;5021026;28;20025;-93
2021/01/20 13:00:09;;;;;;;3.60;1.90;;;10.60;61.60;;;;;;5035499;28;20028;-94
2021/01/20 13:02:34;;;;;;;3.58;1.60;;;10.50;61.20;;;;;;5029062;28;20038;-95
2021/01/20 13:05:00;;;;;;;3.00;1.77;;;10.60;61.50;;;;;;5030916;28;20037;-94